PWSweather.com
Personal Weather Stations
Station Observations
K4FB1
Clubhouse Heritage, Lakeland, FL 33812

Clubhouse HeritageLakeland, FL 33812

Lat: 27.969224, Lon: -81.897769

Elevation: 145

Station Type: Davis Vantage Pro2

http://www.ClubhouseWX.com

High Low Average
Temperature 72.5°F22.5°C 49.5°F9.7°C 59.2°F15.1°C
Dew Point 64.0°F17.8°C -41.7°F-40.9°C 53.2°F11.8°C
Winds 8.0 mph 12.9 kmh Calm Calm 4.0 mph SE6.4 kmh SE
Wind Gusts 19.0 mph30.6 kmh 1.0 mph1.6 kmh 8.0 mph12.9 kmh
Humidity 74% 0% 27%
Pressure 30.17 in1021.7 mb 29.95 in1014.2 mb -
Precipitation 0.24 in6.1 mm - -
Hour Temp Dew Point Humidity Winds Wind Gusts Pressure Precip Precip Rate Daily Precip Total
12:00 AM 72.2°F22.3°C 64.0°F17.8°C 0% 3.0 mph S4.8 kmh S 9.0 mph14.5 kmh 30.00 in1015.9 mb 0.00 in0.0 mm 0.00 in0.0 mm 0.01 in0.3 mm
12:25 AM 72.6°F22.6°C 64.0°F17.8°C 0% 3.0 mph SSW4.8 kmh SSW 6.0 mph9.7 kmh 30.00 in1015.9 mb 0.00 in0.0 mm 0.00 in0.0 mm 0.01 in0.3 mm
12:30 AM 72.5°F22.5°C 64.0°F17.8°C 0% 2.0 mph SSW3.2 kmh SSW 6.0 mph9.7 kmh 30.00 in1015.9 mb 0.00 in0.0 mm 0.00 in0.0 mm 0.01 in0.3 mm
12:35 AM 72.5°F22.5°C 64.0°F17.8°C 0% 2.0 mph SSW3.2 kmh SSW 6.0 mph9.7 kmh 29.99 in1015.6 mb 0.00 in0.0 mm 0.00 in0.0 mm 0.01 in0.3 mm
12:40 AM 72.5°F22.5°C 64.0°F17.8°C 0% 2.0 mph SW3.2 kmh SW 6.0 mph9.7 kmh 29.99 in1015.6 mb 0.00 in0.0 mm 0.00 in0.0 mm 0.01 in0.3 mm
12:45 AM 72.6°F22.6°C 64.0°F17.8°C 0% 2.0 mph SSW3.2 kmh SSW 6.0 mph9.7 kmh 29.99 in1015.6 mb 0.00 in0.0 mm 0.00 in0.0 mm 0.01 in0.3 mm
12:50 AM 72.6°F22.6°C 64.0°F17.8°C 0% 3.0 mph S4.8 kmh S 6.0 mph9.7 kmh 29.98 in1015.2 mb 0.00 in0.0 mm 0.00 in0.0 mm 0.01 in0.3 mm
12:55 AM 72.6°F22.6°C 64.0°F17.8°C 0% 2.0 mph S3.2 kmh S 6.0 mph9.7 kmh 29.98 in1015.2 mb 0.00 in0.0 mm 0.00 in0.0 mm 0.01 in0.3 mm
01:00 AM 72.5°F22.5°C 64.0°F17.8°C 0% 3.0 mph S4.8 kmh S 7.0 mph11.3 kmh 29.97 in1014.9 mb 0.00 in0.0 mm 0.00 in0.0 mm 0.00 in0.0 mm
01:05 AM 72.5°F22.5°C 64.0°F17.8°C 0% 3.0 mph SSW4.8 kmh SSW 7.0 mph11.3 kmh 29.97 in1014.9 mb 0.00 in0.0 mm 0.00 in0.0 mm 0.00 in0.0 mm
01:10 AM 72.5°F22.5°C 64.0°F17.8°C 0% 2.0 mph S3.2 kmh S 5.0 mph8.0 kmh 29.97 in1014.9 mb 0.00 in0.0 mm 0.00 in0.0 mm 0.00 in0.0 mm
01:15 AM 72.5°F22.5°C 64.0°F17.8°C 0% 2.0 mph S3.2 kmh S 5.0 mph8.0 kmh 29.97 in1014.9 mb 0.00 in0.0 mm 0.00 in0.0 mm 0.00 in0.0 mm
01:20 AM 72.4°F22.4°C 64.0°F17.8°C 0% 2.0 mph S3.2 kmh S 5.0 mph8.0 kmh 29.97 in1014.9 mb 0.00 in0.0 mm 0.00 in0.0 mm 0.00 in0.0 mm
01:25 AM 72.4°F22.4°C 64.0°F17.8°C 0% 1.0 mph S1.6 kmh S 3.0 mph4.8 kmh 29.97 in1014.9 mb 0.00 in0.0 mm 0.00 in0.0 mm 0.00 in0.0 mm
01:30 AM 72.4°F22.4°C 64.0°F17.8°C 0% 1.0 mph S1.6 kmh S 4.0 mph6.4 kmh 29.97 in1014.9 mb 0.00 in0.0 mm 0.00 in0.0 mm 0.00 in0.0 mm
01:35 AM 72.4°F22.4°C 64.0°F17.8°C 0% 2.0 mph SW3.2 kmh SW 5.0 mph8.0 kmh 29.97 in1014.9 mb 0.00 in0.0 mm 0.00 in0.0 mm 0.00 in0.0 mm
01:40 AM 72.3°F22.4°C 64.0°F17.8°C 0% 2.0 mph SW3.2 kmh SW 5.0 mph8.0 kmh 29.97 in1014.9 mb 0.00 in0.0 mm 0.00 in0.0 mm 0.00 in0.0 mm
01:45 AM 72.3°F22.4°C 64.0°F17.8°C 0% 2.0 mph SW3.2 kmh SW 5.0 mph8.0 kmh 29.97 in1014.9 mb 0.00 in0.0 mm 0.00 in0.0 mm 0.00 in0.0 mm
01:50 AM 72.2°F22.3°C 64.0°F17.8°C 0% 2.0 mph WSW3.2 kmh WSW 5.0 mph8.0 kmh 29.96 in1014.6 mb 0.00 in0.0 mm 0.00 in0.0 mm 0.00 in0.0 mm
01:55 AM 72.2°F22.3°C 64.0°F17.8°C 0% 2.0 mph W3.2 kmh W 4.0 mph6.4 kmh 29.96 in1014.6 mb 0.00 in0.0 mm 0.00 in0.0 mm 0.00 in0.0 mm
02:00 AM 72.2°F22.3°C 64.0°F17.8°C 0% 1.0 mph WSW1.6 kmh WSW 4.0 mph6.4 kmh 29.95 in1014.2 mb 0.00 in0.0 mm 0.00 in0.0 mm 0.00 in0.0 mm
02:05 AM 72.2°F22.3°C 64.0°F17.8°C 0% 2.0 mph WSW3.2 kmh WSW 4.0 mph6.4 kmh 29.95 in1014.2 mb 0.00 in0.0 mm 0.00 in0.0 mm 0.00 in0.0 mm
02:10 AM 72.2°F22.3°C 64.0°F17.8°C 0% 2.0 mph WSW3.2 kmh WSW 4.0 mph6.4 kmh 29.95 in1014.2 mb 0.00 in0.0 mm 0.00 in0.0 mm 0.00 in0.0 mm
02:15 AM 72.3°F22.4°C 64.0°F17.8°C 0% 1.0 mph WSW1.6 kmh WSW 3.0 mph4.8 kmh 29.95 in1014.2 mb 0.01 in0.3 mm 0.12 in3.0 mm 0.01 in0.3 mm
02:20 AM 72.4°F22.4°C 64.0°F17.8°C 0% 1.0 mph WSW1.6 kmh WSW 3.0 mph4.8 kmh 29.96 in1014.6 mb 0.01 in0.3 mm 0.00 in0.0 mm 0.01 in0.3 mm
02:25 AM 72.4°F22.4°C 64.0°F17.8°C 0% Calm Calm 1.0 mph1.6 kmh 29.96 in1014.6 mb 0.02 in0.5 mm 0.12 in3.0 mm 0.02 in0.5 mm
02:30 AM 72.4°F22.4°C 64.0°F17.8°C 0% Calm Calm 2.0 mph3.2 kmh 29.96 in1014.6 mb 0.03 in0.8 mm 0.12 in3.0 mm 0.03 in0.8 mm
02:35 AM 72.4°F22.4°C 64.0°F17.8°C 0% 1.0 mph W1.6 kmh W 16.0 mph25.7 kmh 29.97 in1014.9 mb 0.04 in1.0 mm 0.12 in3.0 mm 0.04 in1.0 mm
02:40 AM 69.3°F20.7°C 64.0°F17.8°C 0% 5.0 mph W8.0 kmh W 19.0 mph30.6 kmh 29.98 in1015.2 mb 0.07 in1.8 mm 0.36 in9.1 mm 0.07 in1.8 mm
02:45 AM 68.3°F20.2°C 64.0°F17.8°C 0% 8.0 mph WNW12.9 kmh WNW 19.0 mph30.6 kmh 29.98 in1015.2 mb 0.08 in2.0 mm 0.12 in3.0 mm 0.08 in2.0 mm
02:50 AM 67.4°F19.7°C 64.0°F17.8°C 0% 6.0 mph NW9.7 kmh NW 15.0 mph24.1 kmh 29.98 in1015.2 mb 0.08 in2.0 mm 0.00 in0.0 mm 0.08 in2.0 mm
02:55 AM 66.5°F19.2°C 64.0°F17.8°C 0% 6.0 mph NW9.7 kmh NW 15.0 mph24.1 kmh 29.99 in1015.6 mb 0.08 in2.0 mm 0.00 in0.0 mm 0.08 in2.0 mm
03:00 AM 65.8°F18.8°C 64.0°F17.8°C 0% 8.0 mph NW12.9 kmh NW 16.0 mph25.7 kmh 29.99 in1015.6 mb 0.08 in2.0 mm 0.00 in0.0 mm 0.08 in2.0 mm
03:05 AM 65.0°F18.3°C 64.0°F17.8°C 0% 8.0 mph NW12.9 kmh NW 16.0 mph25.7 kmh 29.99 in1015.6 mb 0.08 in2.0 mm 0.00 in0.0 mm 0.08 in2.0 mm
03:10 AM 64.5°F18.1°C 64.0°F17.8°C 0% 8.0 mph NW12.9 kmh NW 15.0 mph24.1 kmh 29.99 in1015.6 mb 0.08 in2.0 mm 0.00 in0.0 mm 0.08 in2.0 mm
03:15 AM 63.9°F17.7°C 64.0°F17.8°C 0% 8.0 mph NW12.9 kmh NW 15.0 mph24.1 kmh 29.99 in1015.6 mb 0.07 in1.8 mm 0.00 in0.0 mm 0.08 in2.0 mm
03:20 AM 63.2°F17.3°C 64.0°F17.8°C 0% 7.0 mph NNW11.3 kmh NNW 14.0 mph22.5 kmh 30.00 in1015.9 mb 0.07 in1.8 mm 0.00 in0.0 mm 0.08 in2.0 mm
03:25 AM 62.6°F17.0°C 64.0°F17.8°C 0% 7.0 mph NNW11.3 kmh NNW 16.0 mph25.7 kmh 30.00 in1015.9 mb 0.06 in1.5 mm 0.00 in0.0 mm 0.08 in2.0 mm
03:30 AM 62.0°F16.7°C 64.0°F17.8°C 0% 8.0 mph NNW12.9 kmh NNW 16.0 mph25.7 kmh 30.01 in1016.3 mb 0.05 in1.3 mm 0.00 in0.0 mm 0.08 in2.0 mm
03:35 AM 61.6°F16.4°C 64.0°F17.8°C 0% 8.0 mph NNW12.9 kmh NNW 17.0 mph27.4 kmh 30.01 in1016.3 mb 0.03 in0.8 mm 0.00 in0.0 mm 0.08 in2.0 mm
03:40 AM 61.1°F16.2°C 64.0°F17.8°C 0% 8.0 mph NNW12.9 kmh NNW 19.0 mph30.6 kmh 30.01 in1016.3 mb 0.01 in0.3 mm 0.00 in0.0 mm 0.08 in2.0 mm
03:45 AM 60.8°F16.0°C 64.0°F17.8°C 0% 8.0 mph NNW12.9 kmh NNW 19.0 mph30.6 kmh 30.01 in1016.3 mb 0.00 in0.0 mm 0.00 in0.0 mm 0.08 in2.0 mm
03:50 AM 60.4°F15.8°C 64.0°F17.8°C 0% 7.0 mph NNW11.3 kmh NNW 16.0 mph25.7 kmh 30.02 in1016.6 mb 0.00 in0.0 mm 0.00 in0.0 mm 0.08 in2.0 mm
03:55 AM 60.4°F15.8°C 64.0°F17.8°C 0% 7.0 mph N11.3 kmh N 15.0 mph24.1 kmh 30.02 in1016.6 mb 0.00 in0.0 mm 0.00 in0.0 mm 0.08 in2.0 mm
04:00 AM 60.4°F15.8°C 64.0°F17.8°C 0% 5.0 mph N8.0 kmh N 12.0 mph19.3 kmh 30.02 in1016.6 mb 0.00 in0.0 mm 0.00 in0.0 mm 0.08 in2.0 mm
04:05 AM 60.3°F15.7°C 64.0°F17.8°C 0% 6.0 mph N9.7 kmh N 14.0 mph22.5 kmh 30.02 in1016.6 mb 0.00 in0.0 mm 0.00 in0.0 mm 0.08 in2.0 mm
04:10 AM 60.4°F15.8°C 64.0°F17.8°C 0% 6.0 mph N9.7 kmh N 14.0 mph22.5 kmh 30.03 in1016.9 mb 0.00 in0.0 mm 0.00 in0.0 mm 0.08 in2.0 mm
04:15 AM 60.4°F15.8°C 64.0°F17.8°C 0% 5.0 mph N8.0 kmh N 11.0 mph17.7 kmh 30.03 in1016.9 mb 0.00 in0.0 mm 0.00 in0.0 mm 0.08 in2.0 mm
04:20 AM 60.5°F15.8°C 64.0°F17.8°C 0% 5.0 mph N8.0 kmh N 11.0 mph17.7 kmh 30.03 in1016.9 mb 0.00 in0.0 mm 0.00 in0.0 mm 0.08 in2.0 mm
04:25 AM 60.7°F15.9°C 64.0°F17.8°C 0% 5.0 mph N8.0 kmh N 11.0 mph17.7 kmh 30.03 in1016.9 mb 0.00 in0.0 mm 0.00 in0.0 mm 0.08 in2.0 mm
04:30 AM 60.8°F16.0°C 64.0°F17.8°C 0% 5.0 mph N8.0 kmh N 11.0 mph17.7 kmh 30.04 in1017.3 mb 0.00 in0.0 mm 0.00 in0.0 mm 0.08 in2.0 mm
04:35 AM 60.9°F16.1°C 64.0°F17.8°C 0% 5.0 mph N8.0 kmh N 11.0 mph17.7 kmh 30.03 in1016.9 mb 0.00 in0.0 mm 0.00 in0.0 mm 0.08 in2.0 mm
04:40 AM 60.9°F16.1°C 64.0°F17.8°C 0% 5.0 mph N8.0 kmh N 10.0 mph16.1 kmh 30.03 in1016.9 mb 0.00 in0.0 mm 0.00 in0.0 mm 0.08 in2.0 mm
04:45 AM 60.9°F16.1°C 64.0°F17.8°C 0% 4.0 mph N6.4 kmh N 8.0 mph12.9 kmh 30.03 in1016.9 mb 0.00 in0.0 mm 0.00 in0.0 mm 0.08 in2.0 mm
04:50 AM 60.9°F16.1°C 64.0°F17.8°C 0% 3.0 mph N4.8 kmh N 7.0 mph11.3 kmh 30.03 in1016.9 mb 0.00 in0.0 mm 0.00 in0.0 mm 0.08 in2.0 mm
04:55 AM 60.9°F16.1°C 64.0°F17.8°C 0% 3.0 mph NNE4.8 kmh NNE 7.0 mph11.3 kmh 30.03 in1016.9 mb 0.00 in0.0 mm 0.00 in0.0 mm 0.08 in2.0 mm
05:00 AM 60.9°F16.1°C 64.0°F17.8°C 0% 3.0 mph NNE4.8 kmh NNE 7.0 mph11.3 kmh 30.03 in1016.9 mb 0.01 in0.3 mm 0.01 in0.3 mm 0.09 in2.3 mm
05:05 AM 60.9°F16.1°C 64.0°F17.8°C 0% 3.0 mph N4.8 kmh N 8.0 mph12.9 kmh 30.03 in1016.9 mb 0.01 in0.3 mm 0.00 in0.0 mm 0.09 in2.3 mm
05:10 AM 60.9°F16.1°C 64.0°F17.8°C 0% 3.0 mph N4.8 kmh N 8.0 mph12.9 kmh 30.03 in1016.9 mb 0.01 in0.3 mm 0.00 in0.0 mm 0.09 in2.3 mm
05:15 AM 60.9°F16.1°C 64.0°F17.8°C 0% 2.0 mph NNE3.2 kmh NNE 6.0 mph9.7 kmh 30.03 in1016.9 mb 0.01 in0.3 mm 0.00 in0.0 mm 0.09 in2.3 mm
05:20 AM 61.0°F16.1°C 64.0°F17.8°C 0% 3.0 mph NNE4.8 kmh NNE 7.0 mph11.3 kmh 30.03 in1016.9 mb 0.01 in0.3 mm 0.00 in0.0 mm 0.09 in2.3 mm
05:25 AM 61.0°F16.1°C 64.0°F17.8°C 0% 3.0 mph NNE4.8 kmh NNE 7.0 mph11.3 kmh 30.03 in1016.9 mb 0.01 in0.3 mm 0.00 in0.0 mm 0.09 in2.3 mm
05:30 AM 61.0°F16.1°C 64.0°F17.8°C 0% 3.0 mph NNE4.8 kmh NNE 7.0 mph11.3 kmh 30.04 in1017.3 mb 0.01 in0.3 mm 0.00 in0.0 mm 0.09 in2.3 mm
05:35 AM 61.0°F16.1°C 64.0°F17.8°C 0% 3.0 mph NNE4.8 kmh NNE 6.0 mph9.7 kmh 30.04 in1017.3 mb 0.01 in0.3 mm 0.00 in0.0 mm 0.09 in2.3 mm
05:40 AM 61.1°F16.2°C 64.0°F17.8°C 0% 3.0 mph NNE4.8 kmh NNE 6.0 mph9.7 kmh 30.04 in1017.3 mb 0.01 in0.3 mm 0.00 in0.0 mm 0.09 in2.3 mm
05:45 AM 61.0°F16.1°C 64.0°F17.8°C 0% 3.0 mph N4.8 kmh N 6.0 mph9.7 kmh 30.04 in1017.3 mb 0.01 in0.3 mm 0.00 in0.0 mm 0.09 in2.3 mm
05:50 AM 61.1°F16.2°C 64.0°F17.8°C 0% 3.0 mph N4.8 kmh N 7.0 mph11.3 kmh 30.04 in1017.3 mb 0.01 in0.3 mm 0.00 in0.0 mm 0.09 in2.3 mm
05:55 AM 61.1°F16.2°C 64.0°F17.8°C 0% 4.0 mph N6.4 kmh N 7.0 mph11.3 kmh 30.04 in1017.3 mb 0.01 in0.3 mm 0.00 in0.0 mm 0.09 in2.3 mm
06:00 AM 61.1°F16.2°C 64.0°F17.8°C 0% 4.0 mph N6.4 kmh N 7.0 mph11.3 kmh 30.04 in1017.3 mb 0.00 in0.0 mm 0.00 in0.0 mm 0.09 in2.3 mm
06:05 AM 61.2°F16.2°C 64.0°F17.8°C 0% 3.0 mph N4.8 kmh N 7.0 mph11.3 kmh 30.04 in1017.3 mb 0.00 in0.0 mm 0.00 in0.0 mm 0.09 in2.3 mm
06:10 AM 61.2°F16.2°C 64.0°F17.8°C 0% 3.0 mph N4.8 kmh N 6.0 mph9.7 kmh 30.04 in1017.3 mb 0.00 in0.0 mm 0.00 in0.0 mm 0.09 in2.3 mm
06:15 AM 61.2°F16.2°C 64.0°F17.8°C 0% 3.0 mph NNE4.8 kmh NNE 6.0 mph9.7 kmh 30.04 in1017.3 mb 0.00 in0.0 mm 0.00 in0.0 mm 0.09 in2.3 mm
06:20 AM 61.3°F16.3°C 64.0°F17.8°C 0% 3.0 mph NNE4.8 kmh NNE 6.0 mph9.7 kmh 30.04 in1017.3 mb 0.01 in0.3 mm 0.12 in3.0 mm 0.10 in2.5 mm
06:25 AM 61.3°F16.3°C 64.0°F17.8°C 0% 3.0 mph NNE4.8 kmh NNE 7.0 mph11.3 kmh 30.04 in1017.3 mb 0.01 in0.3 mm 0.00 in0.0 mm 0.10 in2.5 mm
06:30 AM 61.3°F16.3°C 64.0°F17.8°C 0% 3.0 mph NE4.8 kmh NE 7.0 mph11.3 kmh 30.04 in1017.3 mb 0.01 in0.3 mm 0.00 in0.0 mm 0.10 in2.5 mm
06:35 AM 61.3°F16.3°C 64.0°F17.8°C 0% 3.0 mph NNE4.8 kmh NNE 7.0 mph11.3 kmh 30.05 in1017.6 mb 0.01 in0.3 mm 0.00 in0.0 mm 0.10 in2.5 mm
06:40 AM 61.2°F16.2°C 64.0°F17.8°C 0% 3.0 mph NNE4.8 kmh NNE 10.0 mph16.1 kmh 30.05 in1017.6 mb 0.01 in0.3 mm 0.00 in0.0 mm 0.10 in2.5 mm
06:45 AM 61.2°F16.2°C 64.0°F17.8°C 0% 4.0 mph NE6.4 kmh NE 10.0 mph16.1 kmh 30.05 in1017.6 mb 0.01 in0.3 mm 0.00 in0.0 mm 0.10 in2.5 mm
06:50 AM 61.3°F16.3°C 64.0°F17.8°C 0% 3.0 mph NE4.8 kmh NE 8.0 mph12.9 kmh 30.05 in1017.6 mb 0.01 in0.3 mm 0.00 in0.0 mm 0.10 in2.5 mm
06:55 AM 61.3°F16.3°C 64.0°F17.8°C 0% 3.0 mph NE4.8 kmh NE 7.0 mph11.3 kmh 30.06 in1017.9 mb 0.01 in0.3 mm 0.00 in0.0 mm 0.10 in2.5 mm
07:00 AM 61.2°F16.2°C 64.0°F17.8°C 0% 3.0 mph NE4.8 kmh NE 9.0 mph14.5 kmh 30.06 in1017.9 mb 0.01 in0.3 mm 0.00 in0.0 mm 0.10 in2.5 mm
07:05 AM 61.1°F16.2°C 64.0°F17.8°C 0% 4.0 mph NE6.4 kmh NE 9.0 mph14.5 kmh 30.06 in1017.9 mb 0.01 in0.3 mm 0.00 in0.0 mm 0.10 in2.5 mm
07:10 AM 61.1°F16.2°C 64.0°F17.8°C 0% 4.0 mph NNE6.4 kmh NNE 9.0 mph14.5 kmh 30.06 in1017.9 mb 0.01 in0.3 mm 0.00 in0.0 mm 0.10 in2.5 mm
07:15 AM 61.0°F16.1°C 64.0°F17.8°C 0% 4.0 mph NNE6.4 kmh NNE 9.0 mph14.5 kmh 30.06 in1017.9 mb 0.01 in0.3 mm 0.00 in0.0 mm 0.10 in2.5 mm
07:20 AM 61.0°F16.1°C 64.0°F17.8°C 0% 3.0 mph NNE4.8 kmh NNE 7.0 mph11.3 kmh 30.06 in1017.9 mb 0.00 in0.0 mm 0.00 in0.0 mm 0.10 in2.5 mm
07:25 AM 61.0°F16.1°C 64.0°F17.8°C 0% 3.0 mph NNE4.8 kmh NNE 8.0 mph12.9 kmh 30.06 in1017.9 mb 0.00 in0.0 mm 0.00 in0.0 mm 0.10 in2.5 mm
07:30 AM 61.0°F16.1°C 64.0°F17.8°C 0% 3.0 mph NNE4.8 kmh NNE 8.0 mph12.9 kmh 30.06 in1017.9 mb 0.00 in0.0 mm 0.00 in0.0 mm 0.10 in2.5 mm
07:35 AM 60.9°F16.1°C 64.0°F17.8°C 0% 3.0 mph N4.8 kmh N 7.0 mph11.3 kmh 30.06 in1017.9 mb 0.00 in0.0 mm 0.00 in0.0 mm 0.10 in2.5 mm
07:40 AM 60.9°F16.1°C 64.0°F17.8°C 0% 3.0 mph N4.8 kmh N 8.0 mph12.9 kmh 30.06 in1017.9 mb 0.00 in0.0 mm 0.00 in0.0 mm 0.10 in2.5 mm
07:45 AM 60.8°F16.0°C 64.0°F17.8°C 0% 4.0 mph N6.4 kmh N 8.0 mph12.9 kmh 30.06 in1017.9 mb 0.00 in0.0 mm 0.00 in0.0 mm 0.10 in2.5 mm
07:50 AM 60.9°F16.1°C 64.0°F17.8°C 0% 3.0 mph NNE4.8 kmh NNE 8.0 mph12.9 kmh 30.06 in1017.9 mb 0.00 in0.0 mm 0.00 in0.0 mm 0.10 in2.5 mm
07:55 AM 61.0°F16.1°C 64.0°F17.8°C 0% 2.0 mph NE3.2 kmh NE 5.0 mph8.0 kmh 30.06 in1017.9 mb 0.00 in0.0 mm 0.00 in0.0 mm 0.10 in2.5 mm
08:00 AM 61.1°F16.2°C 64.0°F17.8°C 0% 2.0 mph NE3.2 kmh NE 5.0 mph8.0 kmh 30.05 in1017.6 mb 0.00 in0.0 mm 0.00 in0.0 mm 0.10 in2.5 mm
08:05 AM 61.1°F16.2°C 64.0°F17.8°C 0% 3.0 mph NNE4.8 kmh NNE 6.0 mph9.7 kmh 30.05 in1017.6 mb 0.00 in0.0 mm 0.00 in0.0 mm 0.10 in2.5 mm
08:10 AM 61.1°F16.2°C 64.0°F17.8°C 0% 3.0 mph N4.8 kmh N 6.0 mph9.7 kmh 30.05 in1017.6 mb 0.01 in0.3 mm 0.12 in3.0 mm 0.11 in2.8 mm
08:15 AM 61.1°F16.2°C 64.0°F17.8°C 0% 3.0 mph N4.8 kmh N 9.0 mph14.5 kmh 30.06 in1017.9 mb 0.01 in0.3 mm 0.00 in0.0 mm 0.11 in2.8 mm
08:20 AM 61.2°F16.2°C 64.0°F17.8°C 0% 3.0 mph N4.8 kmh N 9.0 mph14.5 kmh 30.06 in1017.9 mb 0.01 in0.3 mm 0.00 in0.0 mm 0.11 in2.8 mm
08:25 AM 61.1°F16.2°C 64.0°F17.8°C 0% 2.0 mph N3.2 kmh N 5.0 mph8.0 kmh 30.07 in1018.3 mb 0.01 in0.3 mm 0.00 in0.0 mm 0.11 in2.8 mm
08:30 AM 61.1°F16.2°C 64.0°F17.8°C 0% 2.0 mph N3.2 kmh N 5.0 mph8.0 kmh 30.08 in1018.6 mb 0.01 in0.3 mm 0.00 in0.0 mm 0.11 in2.8 mm
08:35 AM 61.2°F16.2°C 64.0°F17.8°C 0% 2.0 mph N3.2 kmh N 4.0 mph6.4 kmh 30.08 in1018.6 mb 0.01 in0.3 mm 0.00 in0.0 mm 0.11 in2.8 mm
08:40 AM 61.3°F16.3°C 64.0°F17.8°C 0% 2.0 mph N3.2 kmh N 4.0 mph6.4 kmh 30.09 in1019.0 mb 0.02 in0.5 mm 0.12 in3.0 mm 0.12 in3.0 mm
08:45 AM 61.4°F16.3°C 64.0°F17.8°C 0% 2.0 mph NNW3.2 kmh NNW 5.0 mph8.0 kmh 30.09 in1019.0 mb 0.03 in0.8 mm 0.12 in3.0 mm 0.13 in3.3 mm
08:50 AM 61.4°F16.3°C 64.0°F17.8°C 0% 2.0 mph NNW3.2 kmh NNW 5.0 mph8.0 kmh 30.09 in1019.0 mb 0.03 in0.8 mm 0.00 in0.0 mm 0.13 in3.3 mm
08:55 AM 61.3°F16.3°C 64.0°F17.8°C 0% 2.0 mph NNW3.2 kmh NNW 6.0 mph9.7 kmh 30.09 in1019.0 mb 0.04 in1.0 mm 0.12 in3.0 mm 0.14 in3.6 mm
09:00 AM 61.3°F16.3°C 64.0°F17.8°C 0% 3.0 mph N4.8 kmh N 7.0 mph11.3 kmh 30.09 in1019.0 mb 0.05 in1.3 mm 0.01 in0.3 mm 0.15 in3.8 mm
09:05 AM 61.3°F16.3°C 64.0°F17.8°C 0% 3.0 mph N4.8 kmh N 7.0 mph11.3 kmh 30.09 in1019.0 mb 0.05 in1.3 mm 0.00 in0.0 mm 0.15 in3.8 mm
09:10 AM 61.3°F16.3°C 64.0°F17.8°C 0% 2.0 mph N3.2 kmh N 5.0 mph8.0 kmh 30.09 in1019.0 mb 0.05 in1.3 mm 0.00 in0.0 mm 0.16 in4.1 mm
09:15 AM 61.3°F16.3°C 64.0°F17.8°C 0% 2.0 mph N3.2 kmh N 5.0 mph8.0 kmh 30.09 in1019.0 mb 0.05 in1.3 mm 0.00 in0.0 mm 0.16 in4.1 mm
09:20 AM 61.4°F16.3°C 64.0°F17.8°C 0% 3.0 mph N4.8 kmh N 8.0 mph12.9 kmh 30.09 in1019.0 mb 0.05 in1.3 mm 0.00 in0.0 mm 0.16 in4.1 mm
09:25 AM 61.3°F16.3°C 64.0°F17.8°C 0% 3.0 mph N4.8 kmh N 8.0 mph12.9 kmh 30.09 in1019.0 mb 0.05 in1.3 mm 0.00 in0.0 mm 0.16 in4.1 mm
09:30 AM 61.4°F16.3°C 64.0°F17.8°C 0% 3.0 mph N4.8 kmh N 7.0 mph11.3 kmh 30.09 in1019.0 mb 0.05 in1.3 mm 0.00 in0.0 mm 0.16 in4.1 mm
09:35 AM 61.4°F16.3°C 64.0°F17.8°C 0% 3.0 mph N4.8 kmh N 7.0 mph11.3 kmh 30.09 in1019.0 mb 0.05 in1.3 mm 0.00 in0.0 mm 0.16 in4.1 mm
09:40 AM 61.4°F16.3°C 64.0°F17.8°C 0% 4.0 mph N6.4 kmh N 7.0 mph11.3 kmh 30.09 in1019.0 mb 0.05 in1.3 mm 0.00 in0.0 mm 0.17 in4.3 mm
09:45 AM 61.4°F16.3°C 64.0°F17.8°C 0% 4.0 mph N6.4 kmh N 8.0 mph12.9 kmh 30.09 in1019.0 mb 0.04 in1.0 mm 0.00 in0.0 mm 0.17 in4.3 mm
09:50 AM 61.4°F16.3°C 64.0°F17.8°C 0% 4.0 mph N6.4 kmh N 9.0 mph14.5 kmh 30.09 in1019.0 mb 0.04 in1.0 mm 0.00 in0.0 mm 0.17 in4.3 mm
09:55 AM 61.3°F16.3°C 64.0°F17.8°C 0% 4.0 mph N6.4 kmh N 10.0 mph16.1 kmh 30.09 in1019.0 mb 0.03 in0.8 mm 0.00 in0.0 mm 0.17 in4.3 mm
10:00 AM 60.8°F16.0°C 64.0°F17.8°C 0% 5.0 mph N8.0 kmh N 11.0 mph17.7 kmh 30.09 in1019.0 mb 0.02 in0.5 mm 0.00 in0.0 mm 0.17 in4.3 mm
10:05 AM 60.5°F15.8°C 64.0°F17.8°C 0% 5.0 mph NNE8.0 kmh NNE 11.0 mph17.7 kmh 30.10 in1019.3 mb 0.02 in0.5 mm 0.00 in0.0 mm 0.17 in4.3 mm
10:10 AM 59.9°F15.5°C 64.0°F17.8°C 0% 4.0 mph N6.4 kmh N 8.0 mph12.9 kmh 30.11 in1019.6 mb 0.01 in0.3 mm 0.00 in0.0 mm 0.17 in4.3 mm
10:15 AM 59.6°F15.3°C 64.0°F17.8°C 0% 4.0 mph N6.4 kmh N 9.0 mph14.5 kmh 30.11 in1019.6 mb 0.01 in0.3 mm 0.00 in0.0 mm 0.17 in4.3 mm
10:20 AM 59.5°F15.3°C 64.0°F17.8°C 0% 4.0 mph N6.4 kmh N 9.0 mph14.5 kmh 30.12 in1020.0 mb 0.02 in0.5 mm 0.12 in3.0 mm 0.18 in4.6 mm
10:25 AM 59.6°F15.3°C 64.0°F17.8°C 0% 3.0 mph N4.8 kmh N 8.0 mph12.9 kmh 30.13 in1020.3 mb 0.04 in1.0 mm 0.24 in6.1 mm 0.20 in5.1 mm
10:30 AM 59.6°F15.3°C 64.0°F17.8°C 0% 3.0 mph N4.8 kmh N 7.0 mph11.3 kmh 30.14 in1020.7 mb 0.05 in1.3 mm 0.12 in3.0 mm 0.21 in5.3 mm
10:35 AM 59.7°F15.4°C 64.0°F17.8°C 0% 3.0 mph NNE4.8 kmh NNE 9.0 mph14.5 kmh 30.14 in1020.7 mb 0.05 in1.3 mm 0.00 in0.0 mm 0.21 in5.3 mm
10:40 AM 59.5°F15.3°C 64.0°F17.8°C 0% 4.0 mph N6.4 kmh N 9.0 mph14.5 kmh 30.14 in1020.7 mb 0.05 in1.3 mm 0.00 in0.0 mm 0.22 in5.6 mm
10:45 AM 59.6°F15.3°C 64.0°F17.8°C 0% 5.0 mph NNW8.0 kmh NNW 10.0 mph16.1 kmh 30.14 in1020.7 mb 0.05 in1.3 mm 0.00 in0.0 mm 0.22 in5.6 mm
10:50 AM 59.4°F15.2°C 64.0°F17.8°C 0% 5.0 mph NNW8.0 kmh NNW 12.0 mph19.3 kmh 30.15 in1021.0 mb 0.05 in1.3 mm 0.00 in0.0 mm 0.22 in5.6 mm
10:55 AM 59.3°F15.2°C 64.0°F17.8°C 0% 5.0 mph N8.0 kmh N 12.0 mph19.3 kmh 30.14 in1020.7 mb 0.05 in1.3 mm 0.00 in0.0 mm 0.22 in5.6 mm
11:00 AM 59.1°F15.1°C 64.0°F17.8°C 0% 5.0 mph N8.0 kmh N 10.0 mph16.1 kmh 30.14 in1020.7 mb 0.05 in1.3 mm 0.00 in0.0 mm 0.22 in5.6 mm
11:05 AM 59.1°F15.1°C 64.0°F17.8°C 0% 4.0 mph N6.4 kmh N 10.0 mph16.1 kmh 30.14 in1020.7 mb 0.05 in1.3 mm 0.00 in0.0 mm 0.22 in5.6 mm
11:10 AM 59.1°F15.1°C 64.0°F17.8°C 0% 4.0 mph N6.4 kmh N 9.0 mph14.5 kmh 30.14 in1020.7 mb 0.05 in1.3 mm 0.00 in0.0 mm 0.22 in5.6 mm
11:15 AM 59.2°F15.1°C 64.0°F17.8°C 0% 5.0 mph N8.0 kmh N 10.0 mph16.1 kmh 30.14 in1020.7 mb 0.05 in1.3 mm 0.00 in0.0 mm 0.22 in5.6 mm
11:20 AM 59.3°F15.2°C 64.0°F17.8°C 0% 4.0 mph N6.4 kmh N 10.0 mph16.1 kmh 30.15 in1021.0 mb 0.03 in0.8 mm 0.00 in0.0 mm 0.22 in5.6 mm
11:25 AM 59.4°F15.2°C 64.0°F17.8°C 0% 4.0 mph NNW6.4 kmh NNW 11.0 mph17.7 kmh 30.15 in1021.0 mb 0.02 in0.5 mm 0.00 in0.0 mm 0.22 in5.6 mm
11:30 AM 59.5°F15.3°C 64.0°F17.8°C 0% 5.0 mph N8.0 kmh N 11.0 mph17.7 kmh 30.15 in1021.0 mb 0.02 in0.5 mm 0.00 in0.0 mm 0.23 in5.8 mm
11:35 AM 59.4°F15.2°C 64.0°F17.8°C 0% 5.0 mph N8.0 kmh N 9.0 mph14.5 kmh 30.14 in1020.7 mb 0.02 in0.5 mm 0.00 in0.0 mm 0.23 in5.8 mm
11:40 AM 59.6°F15.3°C 64.0°F17.8°C 0% 5.0 mph N8.0 kmh N 8.0 mph12.9 kmh 30.14 in1020.7 mb 0.01 in0.3 mm 0.00 in0.0 mm 0.23 in5.8 mm
11:45 AM 59.5°F15.3°C 64.0°F17.8°C 0% 4.0 mph N6.4 kmh N 11.0 mph17.7 kmh 30.15 in1021.0 mb 0.01 in0.3 mm 0.00 in0.0 mm 0.23 in5.8 mm
11:50 AM 59.5°F15.3°C 64.0°F17.8°C 0% 5.0 mph N8.0 kmh N 11.0 mph17.7 kmh 30.15 in1021.0 mb 0.01 in0.3 mm 0.00 in0.0 mm 0.23 in5.8 mm
11:55 AM 59.5°F15.3°C 64.0°F17.8°C 0% 5.0 mph N8.0 kmh N 11.0 mph17.7 kmh 30.15 in1021.0 mb 0.01 in0.3 mm 0.00 in0.0 mm 0.23 in5.8 mm
12:00 PM 59.5°F15.3°C 64.0°F17.8°C 0% 5.0 mph N8.0 kmh N 9.0 mph14.5 kmh 30.14 in1020.7 mb 0.01 in0.3 mm 0.00 in0.0 mm 0.23 in5.8 mm
12:05 PM 59.5°F15.3°C 64.0°F17.8°C 0% 5.0 mph N8.0 kmh N 10.0 mph16.1 kmh 30.14 in1020.7 mb 0.01 in0.3 mm 0.00 in0.0 mm 0.23 in5.8 mm
12:10 PM 59.4°F15.2°C 64.0°F17.8°C 0% 5.0 mph N8.0 kmh N 10.0 mph16.1 kmh 30.13 in1020.3 mb 0.01 in0.3 mm 0.00 in0.0 mm 0.23 in5.8 mm
12:15 PM 59.2°F15.1°C 64.0°F17.8°C 0% 5.0 mph N8.0 kmh N 12.0 mph19.3 kmh 30.13 in1020.3 mb 0.01 in0.3 mm 0.00 in0.0 mm 0.23 in5.8 mm
12:20 PM 59.2°F15.1°C 64.0°F17.8°C 0% 5.0 mph NNE8.0 kmh NNE 12.0 mph19.3 kmh 30.12 in1020.0 mb 0.01 in0.3 mm 0.00 in0.0 mm 0.23 in5.8 mm
12:25 PM 59.1°F15.1°C 64.0°F17.8°C 0% 4.0 mph N6.4 kmh N 9.0 mph14.5 kmh 30.12 in1020.0 mb 0.01 in0.3 mm 0.00 in0.0 mm 0.23 in5.8 mm
12:30 PM 59.1°F15.1°C 64.0°F17.8°C 0% 4.0 mph N6.4 kmh N 8.0 mph12.9 kmh 30.11 in1019.6 mb 0.00 in0.0 mm 0.00 in0.0 mm 0.23 in5.8 mm
12:35 PM 59.1°F15.1°C 64.0°F17.8°C 0% 4.0 mph N6.4 kmh N 8.0 mph12.9 kmh 30.11 in1019.6 mb 0.00 in0.0 mm 0.00 in0.0 mm 0.23 in5.8 mm
12:40 PM 59.2°F15.1°C 64.0°F17.8°C 0% 3.0 mph N4.8 kmh N 8.0 mph12.9 kmh 30.11 in1019.6 mb 0.00 in0.0 mm 0.00 in0.0 mm 0.23 in5.8 mm
12:45 PM 59.3°F15.2°C 64.0°F17.8°C 0% 3.0 mph N4.8 kmh N 7.0 mph11.3 kmh 30.11 in1019.6 mb 0.01 in0.3 mm 0.12 in3.0 mm 0.24 in6.1 mm
12:50 PM 59.5°F15.3°C 64.0°F17.8°C 0% 3.0 mph N4.8 kmh N 7.0 mph11.3 kmh 30.11 in1019.6 mb 0.01 in0.3 mm 0.00 in0.0 mm 0.24 in6.1 mm
12:55 PM 59.8°F15.4°C 64.0°F17.8°C 0% 3.0 mph NNE4.8 kmh NNE 9.0 mph14.5 kmh 30.10 in1019.3 mb 0.01 in0.3 mm 0.00 in0.0 mm 0.24 in6.1 mm
01:00 PM 59.9°F15.5°C 64.0°F17.8°C 0% 4.0 mph NE6.4 kmh NE 10.0 mph16.1 kmh 30.10 in1019.3 mb 0.01 in0.3 mm 0.00 in0.0 mm 0.24 in6.1 mm
01:05 PM 60.1°F15.6°C 64.0°F17.8°C 0% 4.0 mph NNE6.4 kmh NNE 10.0 mph16.1 kmh 30.10 in1019.3 mb 0.01 in0.3 mm 0.00 in0.0 mm 0.24 in6.1 mm
01:10 PM 60.0°F15.6°C 64.0°F17.8°C 0% 4.0 mph NNE6.4 kmh NNE 8.0 mph12.9 kmh 30.10 in1019.3 mb 0.01 in0.3 mm 0.00 in0.0 mm 0.24 in6.1 mm
01:15 PM 60.0°F15.6°C 64.0°F17.8°C 0% 4.0 mph N6.4 kmh N 11.0 mph17.7 kmh 30.10 in1019.3 mb 0.01 in0.3 mm 0.00 in0.0 mm 0.24 in6.1 mm
01:20 PM 60.2°F15.7°C 64.0°F17.8°C 0% 4.0 mph N6.4 kmh N 11.0 mph17.7 kmh 30.10 in1019.3 mb 0.01 in0.3 mm 0.00 in0.0 mm 0.24 in6.1 mm
01:25 PM 60.1°F15.6°C 64.0°F17.8°C 0% 5.0 mph N8.0 kmh N 12.0 mph19.3 kmh 30.09 in1019.0 mb 0.01 in0.3 mm 0.00 in0.0 mm 0.24 in6.1 mm
01:30 PM 59.9°F15.5°C 64.0°F17.8°C 0% 5.0 mph N8.0 kmh N 12.0 mph19.3 kmh 30.08 in1018.6 mb 0.01 in0.3 mm 0.00 in0.0 mm 0.24 in6.1 mm
01:35 PM 59.9°F15.5°C 64.0°F17.8°C 0% 5.0 mph NNE8.0 kmh NNE 13.0 mph20.9 kmh 30.07 in1018.3 mb 0.01 in0.3 mm 0.00 in0.0 mm 0.24 in6.1 mm
01:40 PM 59.9°F15.5°C 64.0°F17.8°C 0% 5.0 mph NNE8.0 kmh NNE 13.0 mph20.9 kmh 30.08 in1018.6 mb 0.01 in0.3 mm 0.00 in0.0 mm 0.24 in6.1 mm
01:45 PM 59.7°F15.4°C 64.0°F17.8°C 0% 6.0 mph N9.7 kmh N 12.0 mph19.3 kmh 30.10 in1019.3 mb 0.00 in0.0 mm 0.00 in0.0 mm 0.24 in6.1 mm
01:50 PM 59.6°F15.3°C 64.0°F17.8°C 0% 5.0 mph NNW8.0 kmh NNW 12.0 mph19.3 kmh 30.10 in1019.3 mb 0.00 in0.0 mm 0.00 in0.0 mm 0.24 in6.1 mm
01:55 PM 59.6°F15.3°C 64.0°F17.8°C 0% 4.0 mph NNW6.4 kmh NNW 10.0 mph16.1 kmh 30.11 in1019.6 mb 0.00 in0.0 mm 0.00 in0.0 mm 0.24 in6.1 mm
02:00 PM 59.4°F15.2°C 64.0°F17.8°C 0% 5.0 mph NW8.0 kmh NW 11.0 mph17.7 kmh 30.11 in1019.6 mb 0.00 in0.0 mm 0.00 in0.0 mm 0.24 in6.1 mm
02:05 PM 59.5°F15.3°C 64.0°F17.8°C 0% 5.0 mph NW8.0 kmh NW 11.0 mph17.7 kmh 30.11 in1019.6 mb 0.00 in0.0 mm 0.00 in0.0 mm 0.24 in6.1 mm
02:10 PM 59.7°F15.4°C 64.0°F17.8°C 0% 4.0 mph NW6.4 kmh NW 9.0 mph14.5 kmh 30.10 in1019.3 mb 0.00 in0.0 mm 0.00 in0.0 mm 0.24 in6.1 mm
02:15 PM 59.6°F15.3°C 64.0°F17.8°C 0% 5.0 mph NNW8.0 kmh NNW 10.0 mph16.1 kmh 30.09 in1019.0 mb 0.00 in0.0 mm 0.00 in0.0 mm 0.24 in6.1 mm
02:20 PM 59.8°F15.4°C 64.0°F17.8°C 0% 5.0 mph NNW8.0 kmh NNW 10.0 mph16.1 kmh 30.09 in1019.0 mb 0.00 in0.0 mm 0.00 in0.0 mm 0.24 in6.1 mm
02:25 PM 59.4°F15.2°C 64.0°F17.8°C 0% 4.0 mph N6.4 kmh N 10.0 mph16.1 kmh 30.07 in1018.3 mb 0.00 in0.0 mm 0.00 in0.0 mm 0.24 in6.1 mm
02:30 PM 59.4°F15.2°C -41.7°F-40.9°C 0% 5.0 mph NNE8.0 kmh NNE 10.0 mph16.1 kmh 30.05 in1017.6 mb 0.00 in0.0 mm 0.00 in0.0 mm 0.24 in6.1 mm
02:35 PM 59.3°F15.2°C -41.7°F-40.9°C 0% 4.0 mph NE6.4 kmh NE 10.0 mph16.1 kmh 30.05 in1017.6 mb 0.00 in0.0 mm 0.00 in0.0 mm 0.24 in6.1 mm
02:40 PM 59.3°F15.2°C -41.7°F-40.9°C 0% 4.0 mph NNE6.4 kmh NNE 8.0 mph12.9 kmh 30.07 in1018.3 mb 0.00 in0.0 mm 0.00 in0.0 mm 0.24 in6.1 mm
02:45 PM 59.3°F15.2°C -8.1°F-22.3°C 6% 5.0 mph NNW8.0 kmh NNW 11.0 mph17.7 kmh 30.09 in1019.0 mb 0.00 in0.0 mm 0.00 in0.0 mm 0.24 in6.1 mm
02:50 PM 59.3°F15.2°C -2.1°F-18.9°C 8% 5.0 mph NNW8.0 kmh NNW 11.0 mph17.7 kmh 30.09 in1019.0 mb 0.00 in0.0 mm 0.00 in0.0 mm 0.24 in6.1 mm
02:55 PM 59.3°F15.2°C 11.6°F-11.3°C 15% 5.0 mph NNW8.0 kmh NNW 13.0 mph20.9 kmh 30.09 in1019.0 mb 0.00 in0.0 mm 0.00 in0.0 mm 0.24 in6.1 mm
03:00 PM 59.3°F15.2°C 21.5°F-5.8°C 23% 5.0 mph N8.0 kmh N 13.0 mph20.9 kmh 30.08 in1018.6 mb 0.00 in0.0 mm 0.00 in0.0 mm 0.24 in6.1 mm
03:05 PM 59.3°F15.2°C 26.2°F-3.2°C 28% 4.0 mph N6.4 kmh N 10.0 mph16.1 kmh 30.07 in1018.3 mb 0.00 in0.0 mm 0.00 in0.0 mm 0.24 in6.1 mm
03:10 PM 59.3°F15.2°C 30.9°F-0.6°C 34% 5.0 mph N8.0 kmh N 10.0 mph16.1 kmh 30.08 in1018.6 mb 0.00 in0.0 mm 0.00 in0.0 mm 0.24 in6.1 mm
03:15 PM 59.5°F15.3°C 31.1°F-0.5°C 34% 5.0 mph N8.0 kmh N 10.0 mph16.1 kmh 30.07 in1018.3 mb 0.00 in0.0 mm 0.00 in0.0 mm 0.24 in6.1 mm
03:20 PM 59.5°F15.3°C 33.2°F0.7°C 37% 4.0 mph N6.4 kmh N 10.0 mph16.1 kmh 30.07 in1018.3 mb 0.00 in0.0 mm 0.00 in0.0 mm 0.24 in6.1 mm
03:25 PM 59.6°F15.3°C 32.6°F0.3°C 36% 4.0 mph N6.4 kmh N 8.0 mph12.9 kmh 30.07 in1018.3 mb 0.00 in0.0 mm 0.00 in0.0 mm 0.24 in6.1 mm
03:30 PM 59.7°F15.4°C 33.4°F0.8°C 37% 3.0 mph N4.8 kmh N 8.0 mph12.9 kmh 30.08 in1018.6 mb 0.00 in0.0 mm 0.00 in0.0 mm 0.24 in6.1 mm
03:35 PM 59.8°F15.4°C 33.5°F0.8°C 37% 3.0 mph N4.8 kmh N 8.0 mph12.9 kmh 30.08 in1018.6 mb 0.00 in0.0 mm 0.00 in0.0 mm 0.24 in6.1 mm
03:40 PM 60.1°F15.6°C 31.6°F-0.2°C 34% 3.0 mph N4.8 kmh N 8.0 mph12.9 kmh 30.07 in1018.3 mb 0.00 in0.0 mm 0.00 in0.0 mm 0.24 in6.1 mm
03:45 PM 60.4°F15.8°C 35.3°F1.8°C 39% 3.0 mph N4.8 kmh N 8.0 mph12.9 kmh 30.07 in1018.3 mb 0.00 in0.0 mm 0.00 in0.0 mm 0.24 in6.1 mm
03:50 PM 60.6°F15.9°C 36.8°F2.7°C 41% 2.0 mph N3.2 kmh N 6.0 mph9.7 kmh 30.07 in1018.3 mb 0.00 in0.0 mm 0.00 in0.0 mm 0.24 in6.1 mm
03:55 PM 60.7°F15.9°C 41.4°F5.2°C 49% 3.0 mph N4.8 kmh N 7.0 mph11.3 kmh 30.06 in1017.9 mb 0.00 in0.0 mm 0.00 in0.0 mm 0.24 in6.1 mm
04:00 PM 60.6°F15.9°C 40.2°F4.6°C 47% 3.0 mph NNE4.8 kmh NNE 7.0 mph11.3 kmh 30.06 in1017.9 mb 0.00 in0.0 mm 0.00 in0.0 mm 0.24 in6.1 mm
04:05 PM 60.4°F15.8°C 41.1°F5.1°C 49% 4.0 mph NE6.4 kmh NE 9.0 mph14.5 kmh 30.04 in1017.3 mb 0.00 in0.0 mm 0.00 in0.0 mm 0.24 in6.1 mm
04:10 PM 60.1°F15.6°C 39.2°F4.0°C 46% 3.0 mph NE4.8 kmh NE 9.0 mph14.5 kmh 30.07 in1018.3 mb 0.00 in0.0 mm 0.00 in0.0 mm 0.24 in6.1 mm
04:15 PM 60.1°F15.6°C 38.7°F3.7°C 45% 3.0 mph N4.8 kmh N 7.0 mph11.3 kmh 30.07 in1018.3 mb 0.00 in0.0 mm 0.00 in0.0 mm 0.24 in6.1 mm
04:20 PM 60.0°F15.6°C 38.0°F3.3°C 44% 3.0 mph N4.8 kmh N 7.0 mph11.3 kmh 30.07 in1018.3 mb 0.00 in0.0 mm 0.00 in0.0 mm 0.24 in6.1 mm
04:25 PM 60.0°F15.6°C 37.4°F3.0°C 43% 3.0 mph N4.8 kmh N 6.0 mph9.7 kmh 30.06 in1017.9 mb 0.00 in0.0 mm 0.00 in0.0 mm 0.24 in6.1 mm
04:30 PM 60.0°F15.6°C 39.1°F3.9°C 46% 3.0 mph N4.8 kmh N 6.0 mph9.7 kmh 30.07 in1018.3 mb 0.00 in0.0 mm 0.00 in0.0 mm 0.24 in6.1 mm
04:35 PM 60.1°F15.6°C 38.7°F3.7°C 45% 3.0 mph NNE4.8 kmh NNE 6.0 mph9.7 kmh 30.07 in1018.3 mb 0.00 in0.0 mm 0.00 in0.0 mm 0.24 in6.1 mm
04:40 PM 60.1°F15.6°C 38.7°F3.7°C 45% 3.0 mph NNE4.8 kmh NNE 7.0 mph11.3 kmh 30.06 in1017.9 mb 0.00 in0.0 mm 0.00 in0.0 mm 0.24 in6.1 mm
04:45 PM 60.1°F15.6°C 38.7°F3.7°C 45% 3.0 mph N4.8 kmh N 7.0 mph11.3 kmh 30.07 in1018.3 mb 0.00 in0.0 mm 0.00 in0.0 mm 0.24 in6.1 mm
04:50 PM 60.2°F15.7°C 39.3°F4.1°C 46% 3.0 mph N4.8 kmh N 7.0 mph11.3 kmh 30.06 in1017.9 mb 0.00 in0.0 mm 0.00 in0.0 mm 0.24 in6.1 mm
04:55 PM 60.2°F15.7°C 39.9°F4.4°C 47% 3.0 mph N4.8 kmh N 7.0 mph11.3 kmh 30.07 in1018.3 mb 0.00 in0.0 mm 0.00 in0.0 mm 0.24 in6.1 mm
05:00 PM 60.3°F15.7°C 40.0°F4.4°C 47% 3.0 mph N4.8 kmh N 6.0 mph9.7 kmh 30.07 in1018.3 mb 0.00 in0.0 mm 0.00 in0.0 mm 0.24 in6.1 mm
05:05 PM 60.4°F15.8°C 39.5°F4.2°C 46% 2.0 mph N3.2 kmh N 5.0 mph8.0 kmh 30.07 in1018.3 mb 0.00 in0.0 mm 0.00 in0.0 mm 0.24 in6.1 mm
05:10 PM 60.5°F15.8°C 41.8°F5.4°C 50% 2.0 mph NNE3.2 kmh NNE 5.0 mph8.0 kmh 30.07 in1018.3 mb 0.00 in0.0 mm 0.00 in0.0 mm 0.24 in6.1 mm
05:15 PM 60.5°F15.8°C 43.3°F6.3°C 53% 3.0 mph NNE4.8 kmh NNE 7.0 mph11.3 kmh 30.07 in1018.3 mb 0.00 in0.0 mm 0.00 in0.0 mm 0.24 in6.1 mm
05:20 PM 60.4°F15.8°C 46.4°F8.0°C 60% 3.0 mph NNE4.8 kmh NNE 9.0 mph14.5 kmh 30.07 in1018.3 mb 0.00 in0.0 mm 0.00 in0.0 mm 0.24 in6.1 mm
05:25 PM 60.3°F15.7°C 47.6°F8.7°C 63% 4.0 mph NNE6.4 kmh NNE 9.0 mph14.5 kmh 30.07 in1018.3 mb 0.00 in0.0 mm 0.00 in0.0 mm 0.24 in6.1 mm
05:30 PM 60.2°F15.7°C 47.1°F8.4°C 62% 4.0 mph N6.4 kmh N 8.0 mph12.9 kmh 30.08 in1018.6 mb 0.00 in0.0 mm 0.00 in0.0 mm 0.24 in6.1 mm
05:35 PM 60.2°F15.7°C 46.7°F8.2°C 61% 3.0 mph N4.8 kmh N 8.0 mph12.9 kmh 30.08 in1018.6 mb 0.00 in0.0 mm 0.00 in0.0 mm 0.24 in6.1 mm
05:40 PM 60.1°F15.6°C 46.6°F8.1°C 61% 4.0 mph N6.4 kmh N 9.0 mph14.5 kmh 30.07 in1018.3 mb 0.00 in0.0 mm 0.00 in0.0 mm 0.24 in6.1 mm
05:45 PM 59.9°F15.5°C 46.4°F8.0°C 61% 5.0 mph N8.0 kmh N 10.0 mph16.1 kmh 30.07 in1018.3 mb 0.00 in0.0 mm 0.00 in0.0 mm 0.24 in6.1 mm
05:50 PM 59.8°F15.4°C 47.2°F8.4°C 63% 5.0 mph N8.0 kmh N 10.0 mph16.1 kmh 30.07 in1018.3 mb 0.00 in0.0 mm 0.00 in0.0 mm 0.24 in6.1 mm
05:55 PM 59.7°F15.4°C 46.2°F7.9°C 61% 4.0 mph N6.4 kmh N 9.0 mph14.5 kmh 30.07 in1018.3 mb 0.00 in0.0 mm 0.00 in0.0 mm 0.24 in6.1 mm
06:00 PM 59.6°F15.3°C 46.1°F7.8°C 61% 4.0 mph N6.4 kmh N 9.0 mph14.5 kmh 30.07 in1018.3 mb 0.00 in0.0 mm 0.00 in0.0 mm 0.24 in6.1 mm
06:05 PM 59.6°F15.3°C 45.7°F7.6°C 60% 4.0 mph N6.4 kmh N 8.0 mph12.9 kmh 30.07 in1018.3 mb 0.00 in0.0 mm 0.00 in0.0 mm 0.24 in6.1 mm
06:10 PM 59.5°F15.3°C 46.9°F8.3°C 63% 4.0 mph N6.4 kmh N 8.0 mph12.9 kmh 30.07 in1018.3 mb 0.00 in0.0 mm 0.00 in0.0 mm 0.24 in6.1 mm
06:15 PM 59.4°F15.2°C 45.9°F7.7°C 61% 3.0 mph N4.8 kmh N 8.0 mph12.9 kmh 30.07 in1018.3 mb 0.00 in0.0 mm 0.00 in0.0 mm 0.24 in6.1 mm
06:20 PM 59.3°F15.2°C 46.3°F7.9°C 62% 3.0 mph NNE4.8 kmh NNE 9.0 mph14.5 kmh 30.07 in1018.3 mb 0.00 in0.0 mm 0.00 in0.0 mm 0.24 in6.1 mm
06:25 PM 59.1°F15.1°C 45.7°F7.6°C 61% 4.0 mph NNE6.4 kmh NNE 9.0 mph14.5 kmh 30.07 in1018.3 mb 0.00 in0.0 mm 0.00 in0.0 mm 0.24 in6.1 mm
06:30 PM 58.9°F14.9°C 45.5°F7.5°C 61% 4.0 mph NNE6.4 kmh NNE 9.0 mph14.5 kmh 30.06 in1017.9 mb 0.00 in0.0 mm 0.00 in0.0 mm 0.24 in6.1 mm
06:35 PM 58.7°F14.8°C 45.7°F7.6°C 62% 4.0 mph NNE6.4 kmh NNE 9.0 mph14.5 kmh 30.06 in1017.9 mb 0.00 in0.0 mm 0.00 in0.0 mm 0.24 in6.1 mm
06:40 PM 58.5°F14.7°C 45.1°F7.3°C 61% 4.0 mph NNE6.4 kmh NNE 8.0 mph12.9 kmh 30.06 in1017.9 mb 0.00 in0.0 mm 0.00 in0.0 mm 0.24 in6.1 mm
06:45 PM 58.3°F14.6°C 45.3°F7.4°C 62% 4.0 mph NNE6.4 kmh NNE 8.0 mph12.9 kmh 30.07 in1018.3 mb 0.00 in0.0 mm 0.00 in0.0 mm 0.24 in6.1 mm
06:50 PM 58.1°F14.5°C 45.1°F7.3°C 62% 4.0 mph N6.4 kmh N 8.0 mph12.9 kmh 30.07 in1018.3 mb 0.00 in0.0 mm 0.00 in0.0 mm 0.24 in6.1 mm
06:55 PM 57.7°F14.3°C 48.4°F9.1°C 71% 5.0 mph N8.0 kmh N 11.0 mph17.7 kmh 30.07 in1018.3 mb 0.00 in0.0 mm 0.00 in0.0 mm 0.24 in6.1 mm
07:00 PM 57.4°F14.1°C 48.8°F9.3°C 73% 5.0 mph N8.0 kmh N 11.0 mph17.7 kmh 30.07 in1018.3 mb 0.00 in0.0 mm 0.00 in0.0 mm 0.24 in6.1 mm
07:05 PM 56.9°F13.8°C 48.0°F8.9°C 72% 5.0 mph N8.0 kmh N 10.0 mph16.1 kmh 30.07 in1018.3 mb 0.00 in0.0 mm 0.00 in0.0 mm 0.24 in6.1 mm
07:10 PM 56.7°F13.7°C 47.8°F8.8°C 72% 4.0 mph N6.4 kmh N 10.0 mph16.1 kmh 30.08 in1018.6 mb 0.00 in0.0 mm 0.00 in0.0 mm 0.24 in6.1 mm
07:15 PM 56.4°F13.6°C 47.5°F8.6°C 72% 4.0 mph N6.4 kmh N 8.0 mph12.9 kmh 30.08 in1018.6 mb 0.00 in0.0 mm 0.00 in0.0 mm 0.24 in6.1 mm
07:20 PM 56.2°F13.4°C 47.7°F8.7°C 73% 3.0 mph NNE4.8 kmh NNE 7.0 mph11.3 kmh 30.08 in1018.6 mb 0.00 in0.0 mm 0.00 in0.0 mm 0.24 in6.1 mm
07:25 PM 56.0°F13.3°C 47.5°F8.6°C 73% 3.0 mph NNE4.8 kmh NNE 7.0 mph11.3 kmh 30.08 in1018.6 mb 0.00 in0.0 mm 0.00 in0.0 mm 0.24 in6.1 mm
07:30 PM 55.8°F13.2°C 47.3°F8.5°C 73% 3.0 mph NNE4.8 kmh NNE 6.0 mph9.7 kmh 30.08 in1018.6 mb 0.00 in0.0 mm 0.00 in0.0 mm 0.24 in6.1 mm
07:35 PM 55.7°F13.2°C 47.2°F8.4°C 73% 3.0 mph N4.8 kmh N 6.0 mph9.7 kmh 30.08 in1018.6 mb 0.00 in0.0 mm 0.00 in0.0 mm 0.24 in6.1 mm
07:40 PM 55.5°F13.1°C 47.0°F8.3°C 73% 3.0 mph N4.8 kmh N 6.0 mph9.7 kmh 30.09 in1019.0 mb 0.00 in0.0 mm 0.00 in0.0 mm 0.24 in6.1 mm
07:45 PM 55.4°F13.0°C 46.9°F8.3°C 73% 3.0 mph N4.8 kmh N 6.0 mph9.7 kmh 30.09 in1019.0 mb 0.00 in0.0 mm 0.00 in0.0 mm 0.24 in6.1 mm
07:50 PM 55.2°F12.9°C 46.7°F8.2°C 73% 3.0 mph N4.8 kmh N 9.0 mph14.5 kmh 30.09 in1019.0 mb 0.00 in0.0 mm 0.00 in0.0 mm 0.24 in6.1 mm
07:55 PM 55.0°F12.8°C 46.5°F8.1°C 73% 4.0 mph N6.4 kmh N 10.0 mph16.1 kmh 30.09 in1019.0 mb 0.00 in0.0 mm 0.00 in0.0 mm 0.24 in6.1 mm
08:00 PM 54.9°F12.7°C 46.8°F8.2°C 74% 4.0 mph N6.4 kmh N 10.0 mph16.1 kmh 30.09 in1019.0 mb 0.00 in0.0 mm 0.00 in0.0 mm 0.24 in6.1 mm
08:05 PM 54.8°F12.7°C 46.7°F8.2°C 74% 4.0 mph N6.4 kmh N 9.0 mph14.5 kmh 30.09 in1019.0 mb 0.00 in0.0 mm 0.00 in0.0 mm 0.24 in6.1 mm
08:10 PM 54.6°F12.6°C 46.5°F8.1°C 74% 3.0 mph N4.8 kmh N 7.0 mph11.3 kmh 30.09 in1019.0 mb 0.00 in0.0 mm 0.00 in0.0 mm 0.24 in6.1 mm
08:15 PM 54.5°F12.5°C 46.4°F8.0°C 74% 3.0 mph N4.8 kmh N 8.0 mph12.9 kmh 30.09 in1019.0 mb 0.00 in0.0 mm 0.00 in0.0 mm 0.24 in6.1 mm
08:20 PM 54.3°F12.4°C 46.2°F7.9°C 74% 3.0 mph NNE4.8 kmh NNE 8.0 mph12.9 kmh 30.09 in1019.0 mb 0.00 in0.0 mm 0.00 in0.0 mm 0.24 in6.1 mm
08:25 PM 54.1°F12.3°C 46.0°F7.8°C 74% 2.0 mph NNE3.2 kmh NNE 6.0 mph9.7 kmh 30.08 in1018.6 mb 0.00 in0.0 mm 0.00 in0.0 mm 0.24 in6.1 mm
08:30 PM 53.9°F12.2°C 45.8°F7.7°C 74% 3.0 mph N4.8 kmh N 7.0 mph11.3 kmh 30.09 in1019.0 mb 0.00 in0.0 mm 0.00 in0.0 mm 0.24 in6.1 mm
08:35 PM 53.7°F12.1°C 45.6°F7.6°C 74% 3.0 mph N4.8 kmh N 7.0 mph11.3 kmh 30.09 in1019.0 mb 0.00 in0.0 mm 0.00 in0.0 mm 0.24 in6.1 mm
08:40 PM 53.5°F11.9°C 45.4°F7.4°C 74% 2.0 mph N3.2 kmh N 6.0 mph9.7 kmh 30.09 in1019.0 mb 0.00 in0.0 mm 0.00 in0.0 mm 0.24 in6.1 mm
08:45 PM 53.4°F11.9°C 45.3°F7.4°C 74% 3.0 mph N4.8 kmh N 7.0 mph11.3 kmh 30.09 in1019.0 mb 0.00 in0.0 mm 0.00 in0.0 mm 0.24 in6.1 mm
08:50 PM 53.3°F11.8°C 44.9°F7.2°C 73% 3.0 mph N4.8 kmh N 7.0 mph11.3 kmh 30.09 in1019.0 mb 0.00 in0.0 mm 0.00 in0.0 mm 0.24 in6.1 mm
08:55 PM 53.2°F11.8°C 44.8°F7.1°C 73% 3.0 mph N4.8 kmh N 5.0 mph8.0 kmh 30.09 in1019.0 mb 0.00 in0.0 mm 0.00 in0.0 mm 0.24 in6.1 mm
09:00 PM 53.1°F11.7°C 45.0°F7.2°C 74% 3.0 mph N4.8 kmh N 6.0 mph9.7 kmh 30.10 in1019.3 mb 0.00 in0.0 mm 0.00 in0.0 mm 0.24 in6.1 mm
09:05 PM 53.0°F11.7°C 44.9°F7.2°C 74% 3.0 mph N4.8 kmh N 9.0 mph14.5 kmh 30.09 in1019.0 mb 0.00 in0.0 mm 0.00 in0.0 mm 0.24 in6.1 mm
09:10 PM 52.9°F11.6°C 44.5°F6.9°C 73% 3.0 mph N4.8 kmh N 9.0 mph14.5 kmh 30.09 in1019.0 mb 0.00 in0.0 mm 0.00 in0.0 mm 0.24 in6.1 mm
09:15 PM 52.8°F11.6°C 44.4°F6.9°C 73% 3.0 mph N4.8 kmh N 7.0 mph11.3 kmh 30.10 in1019.3 mb 0.00 in0.0 mm 0.00 in0.0 mm 0.24 in6.1 mm
09:20 PM 52.7°F11.5°C 44.3°F6.8°C 73% 3.0 mph N4.8 kmh N 6.0 mph9.7 kmh 30.10 in1019.3 mb 0.00 in0.0 mm 0.00 in0.0 mm 0.24 in6.1 mm
09:25 PM 52.5°F11.4°C 44.1°F6.7°C 73% 3.0 mph N4.8 kmh N 8.0 mph12.9 kmh 30.10 in1019.3 mb 0.00 in0.0 mm 0.00 in0.0 mm 0.24 in6.1 mm
09:30 PM 52.4°F11.3°C 44.0°F6.7°C 73% 3.0 mph N4.8 kmh N 8.0 mph12.9 kmh 30.10 in1019.3 mb 0.00 in0.0 mm 0.00 in0.0 mm 0.24 in6.1 mm
09:35 PM 52.3°F11.3°C 44.3°F6.8°C 74% 2.0 mph N3.2 kmh N 6.0 mph9.7 kmh 30.11 in1019.6 mb 0.00 in0.0 mm 0.00 in0.0 mm 0.24 in6.1 mm
09:40 PM 52.1°F11.2°C 44.1°F6.7°C 74% 3.0 mph N4.8 kmh N 7.0 mph11.3 kmh 30.11 in1019.6 mb 0.00 in0.0 mm 0.00 in0.0 mm 0.24 in6.1 mm
09:45 PM 52.0°F11.1°C 44.0°F6.7°C 74% 3.0 mph N4.8 kmh N 7.0 mph11.3 kmh 30.11 in1019.6 mb 0.00 in0.0 mm 0.00 in0.0 mm 0.24 in6.1 mm
09:50 PM 51.8°F11.0°C 43.8°F6.6°C 74% 3.0 mph N4.8 kmh N 7.0 mph11.3 kmh 30.11 in1019.6 mb 0.00 in0.0 mm 0.00 in0.0 mm 0.24 in6.1 mm
09:55 PM 51.7°F10.9°C 43.7°F6.5°C 74% 3.0 mph N4.8 kmh N 7.0 mph11.3 kmh 30.11 in1019.6 mb 0.00 in0.0 mm 0.00 in0.0 mm 0.24 in6.1 mm
10:00 PM 51.5°F10.8°C 43.5°F6.4°C 74% 2.0 mph N3.2 kmh N 5.0 mph8.0 kmh 30.11 in1019.6 mb 0.00 in0.0 mm 0.00 in0.0 mm 0.24 in6.1 mm
10:05 PM 51.4°F10.8°C 43.4°F6.3°C 74% 2.0 mph N3.2 kmh N 5.0 mph8.0 kmh 30.12 in1020.0 mb 0.00 in0.0 mm 0.00 in0.0 mm 0.24 in6.1 mm
10:10 PM 51.2°F10.7°C 43.2°F6.2°C 74% 2.0 mph N3.2 kmh N 5.0 mph8.0 kmh 30.12 in1020.0 mb 0.00 in0.0 mm 0.00 in0.0 mm 0.24 in6.1 mm
10:15 PM 51.0°F10.6°C 43.0°F6.1°C 74% 1.0 mph N1.6 kmh N 4.0 mph6.4 kmh 30.12 in1020.0 mb 0.00 in0.0 mm 0.00 in0.0 mm 0.24 in6.1 mm
10:20 PM 50.9°F10.5°C 42.9°F6.1°C 74% 2.0 mph N3.2 kmh N 4.0 mph6.4 kmh 30.12 in1020.0 mb 0.00 in0.0 mm 0.00 in0.0 mm 0.24 in6.1 mm
10:25 PM 50.7°F10.4°C 42.7°F5.9°C 74% 2.0 mph NNW3.2 kmh NNW 4.0 mph6.4 kmh 30.13 in1020.3 mb 0.00 in0.0 mm 0.00 in0.0 mm 0.24 in6.1 mm
10:30 PM 50.6°F10.3°C 42.6°F5.9°C 74% 2.0 mph NNW3.2 kmh NNW 3.0 mph4.8 kmh 30.13 in1020.3 mb 0.00 in0.0 mm 0.00 in0.0 mm 0.24 in6.1 mm
10:35 PM 50.6°F10.3°C 42.6°F5.9°C 74% 2.0 mph N3.2 kmh N 5.0 mph8.0 kmh 30.13 in1020.3 mb 0.00 in0.0 mm 0.00 in0.0 mm 0.24 in6.1 mm
10:40 PM 50.5°F10.3°C 42.5°F5.8°C 74% 2.0 mph N3.2 kmh N 6.0 mph9.7 kmh 30.13 in1020.3 mb 0.00 in0.0 mm 0.00 in0.0 mm 0.24 in6.1 mm
10:45 PM 50.4°F10.2°C 42.4°F5.8°C 74% 3.0 mph N4.8 kmh N 6.0 mph9.7 kmh 30.13 in1020.3 mb 0.00 in0.0 mm 0.00 in0.0 mm 0.24 in6.1 mm
10:50 PM 50.4°F10.2°C 42.4°F5.8°C 74% 2.0 mph N3.2 kmh N 6.0 mph9.7 kmh 30.13 in1020.3 mb 0.00 in0.0 mm 0.00 in0.0 mm 0.24 in6.1 mm
10:55 PM 50.2°F10.1°C 42.2°F5.7°C 74% 2.0 mph N3.2 kmh N 4.0 mph6.4 kmh 30.13 in1020.3 mb 0.00 in0.0 mm 0.00 in0.0 mm 0.24 in6.1 mm
11:00 PM 50.1°F10.1°C 42.1°F5.6°C 74% 2.0 mph NNE3.2 kmh NNE 4.0 mph6.4 kmh 30.14 in1020.7 mb 0.00 in0.0 mm 0.00 in0.0 mm 0.24 in6.1 mm
11:05 PM 50.0°F10.0°C 42.0°F5.6°C 74% 2.0 mph N3.2 kmh N 3.0 mph4.8 kmh 30.14 in1020.7 mb 0.00 in0.0 mm 0.00 in0.0 mm 0.24 in6.1 mm
11:10 PM 49.9°F9.9°C 41.6°F5.3°C 73% 2.0 mph N3.2 kmh N 5.0 mph8.0 kmh 30.14 in1020.7 mb 0.00 in0.0 mm 0.00 in0.0 mm 0.24 in6.1 mm
11:15 PM 49.9°F9.9°C 41.6°F5.3°C 73% 2.0 mph N3.2 kmh N 5.0 mph8.0 kmh 30.14 in1020.7 mb 0.00 in0.0 mm 0.00 in0.0 mm 0.24 in6.1 mm
11:20 PM 49.9°F9.9°C 41.2°F5.1°C 72% 1.0 mph N1.6 kmh N 4.0 mph6.4 kmh 30.14 in1020.7 mb 0.00 in0.0 mm 0.00 in0.0 mm 0.24 in6.1 mm
11:25 PM 49.9°F9.9°C 40.9°F4.9°C 71% 2.0 mph N3.2 kmh N 6.0 mph9.7 kmh 30.14 in1020.7 mb 0.00 in0.0 mm 0.00 in0.0 mm 0.24 in6.1 mm
11:30 PM 49.9°F9.9°C 40.9°F4.9°C 71% 2.0 mph N3.2 kmh N 6.0 mph9.7 kmh 30.14 in1020.7 mb 0.00 in0.0 mm 0.00 in0.0 mm 0.24 in6.1 mm
11:35 PM 49.9°F9.9°C 40.9°F4.9°C 71% 2.0 mph N3.2 kmh N 5.0 mph8.0 kmh 30.14 in1020.7 mb 0.00 in0.0 mm 0.00 in0.0 mm 0.24 in6.1 mm
11:40 PM 49.9°F9.9°C 40.5°F4.7°C 70% 2.0 mph N3.2 kmh N 5.0 mph8.0 kmh 30.15 in1021.0 mb 0.00 in0.0 mm 0.00 in0.0 mm 0.24 in6.1 mm
11:45 PM 49.9°F9.9°C 40.1°F4.5°C 69% 2.0 mph N3.2 kmh N 5.0 mph8.0 kmh 30.14 in1020.7 mb 0.00 in0.0 mm 0.00 in0.0 mm 0.24 in6.1 mm
11:50 PM 49.9°F9.9°C 40.1°F4.5°C 69% 2.0 mph N3.2 kmh N 5.0 mph8.0 kmh 30.14 in1020.7 mb 0.00 in0.0 mm 0.00 in0.0 mm 0.24 in6.1 mm
11:55 PM 49.8°F9.9°C 39.7°F4.3°C 68% 2.0 mph N3.2 kmh N 5.0 mph8.0 kmh 30.14 in1020.7 mb 0.00 in0.0 mm 0.00 in0.0 mm 0.24 in6.1 mm